createdAt,value
2023-06-16T00:00:02.073Z,27.30
2023-06-16T00:00:12.097Z,27.30
2023-06-16T00:00:22.091Z,27.29
2023-06-16T00:00:32.094Z,27.29
2023-06-16T00:00:42.094Z,27.30
2023-06-16T00:00:52.106Z,27.30
2023-06-16T00:01:02.114Z,27.30
2023-06-16T00:01:12.315Z,27.29
2023-06-16T00:01:22.312Z,27.29
2023-06-16T00:01:32.898Z,27.30
2023-06-16T00:01:42.722Z,27.29
2023-06-16T00:01:52.843Z,27.29
2023-06-16T00:02:03.026Z,27.29
2023-06-16T00:02:13.022Z,27.28
2023-06-16T00:02:23.031Z,27.29
2023-06-16T00:02:33.065Z,27.28
2023-06-16T00:02:43.277Z,27.28
2023-06-16T00:02:53.252Z,27.28
2023-06-16T00:03:03.290Z,27.27
2023-06-16T00:03:13.274Z,27.28
2023-06-16T00:03:23.315Z,27.27
2023-06-16T00:03:33.333Z,27.28
2023-06-16T00:03:43.367Z,27.27
2023-06-16T00:03:53.470Z,27.27
2023-06-16T00:04:03.551Z,27.27
2023-06-16T00:04:13.603Z,27.27
2023-06-16T00:04:23.636Z,27.27
2023-06-16T00:04:33.754Z,27.27
2023-06-16T00:04:43.757Z,27.26
2023-06-16T00:04:54.038Z,27.26
2023-06-16T00:05:04.027Z,27.26
2023-06-16T00:05:14.068Z,27.27
2023-06-16T00:05:24.069Z,27.26
2023-06-16T00:05:34.076Z,27.26
2023-06-16T00:05:44.188Z,27.26
2023-06-16T00:05:54.327Z,27.26
2023-06-16T00:06:04.360Z,27.26
2023-06-16T00:06:14.338Z,27.26
2023-06-16T00:06:24.353Z,27.26
2023-06-16T00:06:34.502Z,27.25
2023-06-16T00:06:44.484Z,27.26
2023-06-16T00:06:54.624Z,27.26
2023-06-16T00:07:04.870Z,27.26
2023-06-16T00:07:14.882Z,27.26
2023-06-16T00:07:24.874Z,27.25
2023-06-16T00:07:34.879Z,27.25
2023-06-16T00:07:44.884Z,27.24
2023-06-16T00:07:55.002Z,27.24
2023-06-16T00:08:05.146Z,27.25
2023-06-16T00:08:15.029Z,27.25
2023-06-16T00:08:25.053Z,27.24
2023-06-16T00:08:35.065Z,27.25
2023-06-16T00:08:45.322Z,27.24
2023-06-16T00:08:55.381Z,27.25
2023-06-16T00:09:05.400Z,27.24
2023-06-16T00:09:15.411Z,27.24
2023-06-16T00:09:25.420Z,27.24
2023-06-16T00:09:35.543Z,27.24
2023-06-16T00:09:45.554Z,27.24
2023-06-16T00:09:55.556Z,27.24
2023-06-16T00:10:05.629Z,27.24
2023-06-16T00:10:15.798Z,27.24
2023-06-16T00:10:25.870Z,27.23
2023-06-16T00:10:35.880Z,27.23
2023-06-16T00:10:45.891Z,27.23
2023-06-16T00:10:56.274Z,27.23
2023-06-16T00:11:06.286Z,27.23
2023-06-16T00:11:16.284Z,27.24
2023-06-16T00:11:26.276Z,27.23
2023-06-16T00:11:36.293Z,27.23
2023-06-16T00:11:46.298Z,27.23
2023-06-16T00:11:56.302Z,27.22
2023-06-16T00:12:06.329Z,27.22
2023-06-16T00:12:16.338Z,27.23
2023-06-16T00:12:26.341Z,27.23
2023-06-16T00:12:36.351Z,27.22
2023-06-16T00:12:46.349Z,27.22
2023-06-16T00:12:56.477Z,27.22
2023-06-16T00:13:06.486Z,27.22
2023-06-16T00:13:16.493Z,27.22
2023-06-16T00:13:26.487Z,27.22
2023-06-16T00:13:36.604Z,27.22
2023-06-16T00:13:46.751Z,27.22
2023-06-16T00:13:56.734Z,27.22
2023-06-16T00:14:06.894Z,27.22
2023-06-16T00:14:17.135Z,27.22
2023-06-16T00:14:27.134Z,27.22
2023-06-16T00:14:37.122Z,27.22
2023-06-16T00:14:47.134Z,27.22
2023-06-16T00:14:57.137Z,27.21
2023-06-16T00:15:07.142Z,27.21
2023-06-16T00:15:17.142Z,27.21
2023-06-16T00:15:27.265Z,27.22
2023-06-16T00:15:37.266Z,27.21
2023-06-16T00:15:47.387Z,27.21
2023-06-16T00:15:57.521Z,27.21
2023-06-16T00:16:07.553Z,27.20
2023-06-16T00:16:17.532Z,27.21
2023-06-16T00:16:27.930Z,27.21
2023-06-16T00:16:37.915Z,27.21
2023-06-16T00:16:48.035Z,27.20
2023-06-16T00:16:58.390Z,27.20
2023-06-16T00:17:08.368Z,27.20
2023-06-16T00:17:18.369Z,27.20
2023-06-16T00:17:28.791Z,27.20
2023-06-16T00:17:38.858Z,27.20
2023-06-16T00:17:48.911Z,27.20
2023-06-16T00:17:58.925Z,27.19
2023-06-16T00:18:08.935Z,27.19
2023-06-16T00:18:18.943Z,27.20
2023-06-16T00:18:29.056Z,27.20
2023-06-16T00:18:39.059Z,27.19
2023-06-16T00:18:49.188Z,27.19
2023-06-16T00:18:59.648Z,27.20
2023-06-16T00:19:09.419Z,27.19
2023-06-16T00:19:19.423Z,27.19
2023-06-16T00:19:29.551Z,27.19
2023-06-16T00:19:39.822Z,27.19
2023-06-16T00:19:49.934Z,27.18
2023-06-16T00:19:59.935Z,27.19
2023-06-16T00:20:10.186Z,27.18
2023-06-16T00:20:20.445Z,27.18
2023-06-16T00:20:30.206Z,27.18
2023-06-16T00:20:40.217Z,27.18
2023-06-16T00:20:50.339Z,27.18
2023-06-16T00:21:00.339Z,27.18
2023-06-16T00:21:10.394Z,27.18
2023-06-16T00:21:20.414Z,27.18
2023-06-16T00:21:30.538Z,27.17
2023-06-16T00:21:40.558Z,27.18
2023-06-16T00:21:50.683Z,27.18
2023-06-16T00:22:00.777Z,27.17
2023-06-16T00:22:10.881Z,27.18
2023-06-16T00:22:21.165Z,27.17
2023-06-16T00:22:31.290Z,27.17
2023-06-16T00:22:41.288Z,27.17
2023-06-16T00:22:51.541Z,27.17
2023-06-16T00:23:01.546Z,27.17
2023-06-16T00:23:11.677Z,27.17
2023-06-16T00:23:21.929Z,27.16
2023-06-16T00:23:32.047Z,27.17
2023-06-16T00:23:42.054Z,27.16
2023-06-16T00:23:52.348Z,27.16
2023-06-16T00:24:02.356Z,27.16
2023-06-16T00:24:12.362Z,27.17
2023-06-16T00:24:22.457Z,27.17
2023-06-16T00:24:32.479Z,27.16
2023-06-16T00:24:42.502Z,27.16
2023-06-16T00:24:52.613Z,27.17
2023-06-16T00:25:02.622Z,27.16
2023-06-16T00:25:12.744Z,27.16
2023-06-16T00:25:22.745Z,27.16
2023-06-16T00:25:32.870Z,27.16
2023-06-16T00:25:42.868Z,27.16
2023-06-16T00:25:52.989Z,27.16
2023-06-16T00:26:03.247Z,27.16
2023-06-16T00:26:13.256Z,27.16
2023-06-16T00:26:23.262Z,27.16
2023-06-16T00:26:33.279Z,27.15
2023-06-16T00:26:43.291Z,27.15
2023-06-16T00:26:53.295Z,27.15
2023-06-16T00:27:03.298Z,27.14
2023-06-16T00:27:13.307Z,27.15
2023-06-16T00:27:23.325Z,27.15
2023-06-16T00:27:33.332Z,27.15
2023-06-16T00:27:43.337Z,27.14
2023-06-16T00:27:53.455Z,27.14
2023-06-16T00:28:03.456Z,27.15
2023-06-16T00:28:13.459Z,27.15
2023-06-16T00:28:23.492Z,27.15
2023-06-16T00:28:33.491Z,27.15
2023-06-16T00:28:43.490Z,27.14
2023-06-16T00:28:53.766Z,27.15
2023-06-16T00:29:03.780Z,27.15
2023-06-16T00:29:13.898Z,27.14
2023-06-16T00:29:24.166Z,27.14
2023-06-16T00:29:34.277Z,27.14
2023-06-16T00:29:44.293Z,27.15
2023-06-16T00:29:54.542Z,27.14
2023-06-16T00:30:04.540Z,27.14
2023-06-16T00:30:14.657Z,27.14
2023-06-16T00:30:24.930Z,27.13
2023-06-16T00:30:34.949Z,27.13
2023-06-16T00:30:44.952Z,27.13
2023-06-16T00:30:54.973Z,27.13
2023-06-16T00:31:05.010Z,27.13
2023-06-16T00:31:15.003Z,27.13
2023-06-16T00:31:25.006Z,27.13
2023-06-16T00:31:35.011Z,27.13
2023-06-16T00:31:45.008Z,27.13
2023-06-16T00:31:55.136Z,27.12
2023-06-16T00:32:05.386Z,27.13
2023-06-16T00:32:15.395Z,27.13
2023-06-16T00:32:25.439Z,27.13
2023-06-16T00:32:35.504Z,27.13
2023-06-16T00:32:45.574Z,27.13
2023-06-16T00:32:55.624Z,27.13
2023-06-16T00:33:05.699Z,27.13
2023-06-16T00:33:15.701Z,27.13
2023-06-16T00:33:25.715Z,27.12
2023-06-16T00:33:35.719Z,27.13
2023-06-16T00:33:45.724Z,27.13
2023-06-16T00:33:55.737Z,27.12
2023-06-16T00:34:05.744Z,27.12
2023-06-16T00:34:15.769Z,27.12
2023-06-16T00:34:25.780Z,27.12
2023-06-16T00:34:35.900Z,27.12
2023-06-16T00:34:45.900Z,27.12
2023-06-16T00:34:56.163Z,27.12
2023-06-16T00:35:06.146Z,27.12
2023-06-16T00:35:16.280Z,27.11
2023-06-16T00:35:26.555Z,27.11
2023-06-16T00:35:36.558Z,27.12
2023-06-16T00:35:46.589Z,27.12
2023-06-16T00:35:56.595Z,27.12
2023-06-16T00:36:06.599Z,27.11
2023-06-16T00:36:16.599Z,27.12
2023-06-16T00:36:26.735Z,27.12
2023-06-16T00:36:36.743Z,27.12
2023-06-16T00:36:46.763Z,27.12
2023-06-16T00:36:56.742Z,27.12
2023-06-16T00:37:07.007Z,27.11
2023-06-16T00:37:17.145Z,27.11
2023-06-16T00:37:27.148Z,27.12
2023-06-16T00:37:37.392Z,27.12
2023-06-16T00:37:47.509Z,27.11
2023-06-16T00:37:57.635Z,27.11
2023-06-16T00:38:07.759Z,27.11
2023-06-16T00:38:17.906Z,27.11
2023-06-16T00:38:27.902Z,27.11
2023-06-16T00:38:38.154Z,27.11
2023-06-16T00:38:48.154Z,27.11
2023-06-16T00:38:58.303Z,27.11
2023-06-16T00:39:08.542Z,27.11
2023-06-16T00:39:18.664Z,27.11
2023-06-16T00:39:28.663Z,27.11
2023-06-16T00:39:38.925Z,27.11
2023-06-16T00:39:48.926Z,27.11
2023-06-16T00:39:59.042Z,27.11
2023-06-16T00:40:09.311Z,27.10
2023-06-16T00:40:19.731Z,27.10
2023-06-16T00:40:29.349Z,27.10
2023-06-16T00:40:39.720Z,27.09
2023-06-16T00:40:49.715Z,27.10
2023-06-16T00:40:59.726Z,27.09
2023-06-16T00:41:09.737Z,27.10
2023-06-16T00:41:19.756Z,27.09
2023-06-16T00:41:29.754Z,27.09
2023-06-16T00:41:39.763Z,27.10
2023-06-16T00:41:49.770Z,27.09
2023-06-16T00:41:59.785Z,27.09
2023-06-16T00:42:09.791Z,27.09
2023-06-16T00:42:19.797Z,27.09
2023-06-16T00:42:29.819Z,27.09
2023-06-16T00:42:39.820Z,27.10
2023-06-16T00:42:49.831Z,27.09
2023-06-16T00:42:59.855Z,27.09
2023-06-16T00:43:09.848Z,27.08
2023-06-16T00:43:19.863Z,27.09
2023-06-16T00:43:29.869Z,27.09
2023-06-16T00:43:39.886Z,27.09
2023-06-16T00:43:49.886Z,27.09
2023-06-16T00:43:59.900Z,27.09
2023-06-16T00:44:09.912Z,27.09
2023-06-16T00:44:19.922Z,27.09
2023-06-16T00:44:31.693Z,27.09
2023-06-16T00:44:39.997Z,27.05
2023-06-16T00:44:50.004Z,27.07
2023-06-16T00:45:00.019Z,27.07
2023-06-16T00:45:10.131Z,27.07
2023-06-16T00:45:20.253Z,27.07
2023-06-16T00:45:30.371Z,27.07
2023-06-16T00:45:40.491Z,27.08
2023-06-16T00:45:50.507Z,27.07
2023-06-16T00:46:00.493Z,27.07
2023-06-16T00:46:10.496Z,27.07
2023-06-16T00:46:20.673Z,27.07
2023-06-16T00:46:30.748Z,27.07
2023-06-16T00:46:40.841Z,27.07
2023-06-16T00:46:50.923Z,27.07
2023-06-16T00:47:00.957Z,27.07
2023-06-16T00:47:11.057Z,27.08
2023-06-16T00:47:21.164Z,27.07
2023-06-16T00:47:31.249Z,27.08
2023-06-16T00:47:41.276Z,27.07
2023-06-16T00:47:51.314Z,27.07
2023-06-16T00:48:01.358Z,27.07
2023-06-16T00:48:11.421Z,27.07
2023-06-16T00:48:21.459Z,27.07
2023-06-16T00:48:31.462Z,27.07
2023-06-16T00:48:41.477Z,27.07
2023-06-16T00:48:51.482Z,27.07
2023-06-16T00:49:01.852Z,27.07
2023-06-16T00:49:11.847Z,27.07
2023-06-16T00:49:21.988Z,27.08
2023-06-16T00:49:32.247Z,27.07
2023-06-16T00:49:42.233Z,27.06
2023-06-16T00:49:52.241Z,27.07
2023-06-16T00:50:02.248Z,27.07
2023-06-16T00:50:12.274Z,27.06
2023-06-16T00:50:22.268Z,27.07
2023-06-16T00:50:32.278Z,27.07
2023-06-16T00:50:42.414Z,27.07
2023-06-16T00:50:52.404Z,27.07
2023-06-16T00:51:02.420Z,27.07
2023-06-16T00:51:12.697Z,27.07
2023-06-16T00:51:22.679Z,27.07
2023-06-16T00:51:32.698Z,27.07
2023-06-16T00:51:42.690Z,27.06
2023-06-16T00:51:52.734Z,27.07
2023-06-16T00:52:02.736Z,27.07
2023-06-16T00:52:12.746Z,27.07
2023-06-16T00:52:22.753Z,27.07
2023-06-16T00:52:32.741Z,27.06
2023-06-16T00:52:42.746Z,27.07
2023-06-16T00:52:52.760Z,27.06
2023-06-16T00:53:02.804Z,27.07
2023-06-16T00:53:12.801Z,27.06
2023-06-16T00:53:22.929Z,27.06
2023-06-16T00:53:32.969Z,27.07
2023-06-16T00:53:42.956Z,27.06
2023-06-16T00:53:52.956Z,27.07
2023-06-16T00:54:03.203Z,27.06
2023-06-16T00:54:13.211Z,27.06
2023-06-16T00:54:23.217Z,27.06
2023-06-16T00:54:33.207Z,27.06
2023-06-16T00:54:43.333Z,27.06
2023-06-16T00:54:53.336Z,27.06
2023-06-16T00:55:03.346Z,27.06
2023-06-16T00:55:13.363Z,27.06
2023-06-16T00:55:23.381Z,27.06
2023-06-16T00:55:33.384Z,27.06
2023-06-16T00:55:43.658Z,27.06
2023-06-16T00:55:53.663Z,27.06
2023-06-16T00:56:03.793Z,27.05
2023-06-16T00:56:14.055Z,27.06
2023-06-16T00:56:24.048Z,27.05
2023-06-16T00:56:34.044Z,27.05
2023-06-16T00:56:44.444Z,27.06
2023-06-16T00:56:54.445Z,27.05
2023-06-16T00:57:04.449Z,27.06
2023-06-16T00:57:14.838Z,27.05
2023-06-16T00:57:24.829Z,27.05
2023-06-16T00:57:34.942Z,27.05
2023-06-16T00:57:45.211Z,27.06
2023-06-16T00:57:55.211Z,27.05
2023-06-16T00:58:05.224Z,27.05
2023-06-16T00:58:15.227Z,27.05
2023-06-16T00:58:25.225Z,27.05
2023-06-16T00:58:35.370Z,27.05
2023-06-16T00:58:45.418Z,27.05
2023-06-16T00:58:55.413Z,27.05
2023-06-16T00:59:05.422Z,27.05
2023-06-16T00:59:15.421Z,27.05
2023-06-16T00:59:25.671Z,27.04
2023-06-16T00:59:35.790Z,27.05
2023-06-16T00:59:45.790Z,27.05
2023-06-16T00:59:56.041Z,27.04
2023-06-16T01:00:06.040Z,27.04
2023-06-16T01:00:16.514Z,27.05
2023-06-16T01:00:26.453Z,27.04
2023-06-16T01:00:36.577Z,27.05
2023-06-16T01:00:46.597Z,27.05
2023-06-16T01:00:56.840Z,27.03
2023-06-16T01:01:06.845Z,27.04
2023-06-16T01:01:16.960Z,27.04
2023-06-16T01:01:27.227Z,27.05
2023-06-16T01:01:37.349Z,27.04
2023-06-16T01:01:47.381Z,27.04
2023-06-16T01:01:57.647Z,27.04
2023-06-16T01:02:07.700Z,27.05
2023-06-16T01:02:17.713Z,27.04
2023-06-16T01:02:27.789Z,27.04
2023-06-16T01:02:37.879Z,27.04
2023-06-16T01:02:47.839Z,27.03
2023-06-16T01:02:58.070Z,27.04
2023-06-16T01:03:07.921Z,27.04
2023-06-16T01:03:18.104Z,27.04
2023-06-16T01:03:28.139Z,27.03
2023-06-16T01:03:38.120Z,27.03
2023-06-16T01:03:48.130Z,27.03
2023-06-16T01:03:58.240Z,27.04
2023-06-16T01:04:08.249Z,27.03
2023-06-16T01:04:18.256Z,27.04
2023-06-16T01:04:28.252Z,27.04
2023-06-16T01:04:38.377Z,27.03
2023-06-16T01:04:48.539Z,27.04
2023-06-16T01:04:58.540Z,27.04
2023-06-16T01:05:08.537Z,27.04
2023-06-16T01:05:18.918Z,27.04
2023-06-16T01:05:28.914Z,27.03
2023-06-16T01:05:39.042Z,27.04
2023-06-16T01:05:49.293Z,27.04
2023-06-16T01:05:59.295Z,27.03
2023-06-16T01:06:09.307Z,27.04
2023-06-16T01:06:21.702Z,27.03
2023-06-16T01:06:29.427Z,27.00
2023-06-16T01:06:39.556Z,27.02
2023-06-16T01:06:49.688Z,27.02
2023-06-16T01:06:59.720Z,27.03
2023-06-16T01:07:09.704Z,27.02
2023-06-16T01:07:19.714Z,27.02
2023-06-16T01:07:29.887Z,27.03
2023-06-16T01:07:39.957Z,27.03
2023-06-16T01:07:50.015Z,27.03
2023-06-16T01:08:00.276Z,27.03
2023-06-16T01:08:10.277Z,27.03
2023-06-16T01:08:20.393Z,27.03
2023-06-16T01:08:30.649Z,27.03
2023-06-16T01:08:40.790Z,27.03
2023-06-16T01:08:50.802Z,27.03
2023-06-16T01:09:01.061Z,27.03
2023-06-16T01:09:11.055Z,27.04
2023-06-16T01:09:21.166Z,27.02
2023-06-16T01:09:31.428Z,27.04
2023-06-16T01:09:41.552Z,27.03
2023-06-16T01:09:51.558Z,27.03
2023-06-16T01:10:01.808Z,27.04
2023-06-16T01:10:11.807Z,27.03
2023-06-16T01:10:22.131Z,27.03
2023-06-16T01:10:32.210Z,27.03
2023-06-16T01:10:42.323Z,27.03
2023-06-16T01:10:52.327Z,27.03
2023-06-16T01:11:02.616Z,27.03
2023-06-16T01:11:12.627Z,27.03
2023-06-16T01:11:22.635Z,27.03
2023-06-16T01:11:32.627Z,27.03
2023-06-16T01:11:42.748Z,27.03
2023-06-16T01:11:52.903Z,27.03
2023-06-16T01:12:02.928Z,27.03
2023-06-16T01:12:12.944Z,27.03
2023-06-16T01:12:22.962Z,27.03
2023-06-16T01:12:32.968Z,27.02
2023-06-16T01:12:43.114Z,27.03
2023-06-16T01:12:53.103Z,27.03
2023-06-16T01:13:03.226Z,27.02
2023-06-16T01:13:13.477Z,27.03
2023-06-16T01:13:23.640Z,27.04
2023-06-16T01:13:33.633Z,27.03
2023-06-16T01:13:43.889Z,27.03
2023-06-16T01:13:53.880Z,27.03
2023-06-16T01:14:03.882Z,27.03
2023-06-16T01:14:13.887Z,27.02
2023-06-16T01:14:24.006Z,27.03
2023-06-16T01:14:34.009Z,27.03
2023-06-16T01:14:44.010Z,27.02
2023-06-16T01:14:54.022Z,27.03
2023-06-16T01:15:04.141Z,27.02
2023-06-16T01:15:14.141Z,27.02
2023-06-16T01:15:24.298Z,27.02
2023-06-16T01:15:34.303Z,27.02
2023-06-16T01:15:44.320Z,27.02
2023-06-16T01:15:54.317Z,27.02
2023-06-16T01:16:04.340Z,27.02
2023-06-16T01:16:14.363Z,27.02
2023-06-16T01:16:24.420Z,27.02
2023-06-16T01:16:34.559Z,27.02
2023-06-16T01:16:44.520Z,27.02
2023-06-16T01:16:54.647Z,27.02
2023-06-16T01:17:05.029Z,27.01
2023-06-16T01:17:14.966Z,27.02
2023-06-16T01:17:25.033Z,27.02
2023-06-16T01:17:35.138Z,27.02
2023-06-16T01:17:45.602Z,27.03
2023-06-16T01:17:55.277Z,27.01
2023-06-16T01:18:05.284Z,27.01
2023-06-16T01:18:15.304Z,27.02
2023-06-16T01:18:25.288Z,27.02
2023-06-16T01:18:35.293Z,27.02
2023-06-16T01:18:45.664Z,27.02
2023-06-16T01:18:55.696Z,27.01
2023-06-16T01:19:05.689Z,27.01
2023-06-16T01:19:15.690Z,27.01
2023-06-16T01:19:25.706Z,27.01
2023-06-16T01:19:35.716Z,27.01
2023-06-16T01:19:45.737Z,27.02
2023-06-16T01:19:55.727Z,27.01
2023-06-16T01:20:05.766Z,27.01
2023-06-16T01:20:15.934Z,27.02
2023-06-16T01:20:25.843Z,27.01
2023-06-16T01:20:35.843Z,27.02
2023-06-16T01:20:45.965Z,27.02
2023-06-16T01:20:55.979Z,27.01
2023-06-16T01:21:05.993Z,27.01
2023-06-16T01:21:15.975Z,27.01
2023-06-16T01:21:26.097Z,27.01
2023-06-16T01:21:36.235Z,27.01
2023-06-16T01:21:46.239Z,27.01
2023-06-16T01:21:56.260Z,27.01
2023-06-16T01:22:06.658Z,27.01
2023-06-16T01:22:16.627Z,27.01
2023-06-16T01:22:26.744Z,27.01
2023-06-16T01:22:37.016Z,27.01
2023-06-16T01:22:47.026Z,27.02
2023-06-16T01:22:57.035Z,27.01
2023-06-16T01:23:07.066Z,27.02
2023-06-16T01:23:17.157Z,27.01
2023-06-16T01:23:27.165Z,27.01
2023-06-16T01:23:37.195Z,27.01
2023-06-16T01:23:47.343Z,27.01
2023-06-16T01:23:57.364Z,27.01
2023-06-16T01:24:07.440Z,27.01
2023-06-16T01:24:17.753Z,27.01
2023-06-16T01:24:27.860Z,27.01
2023-06-16T01:24:37.949Z,27.01
2023-06-16T01:24:48.244Z,27.02
2023-06-16T01:24:58.255Z,27.01
2023-06-16T01:25:08.247Z,27.01
2023-06-16T01:25:18.246Z,27.01
2023-06-16T01:25:28.257Z,27.01
2023-06-16T01:25:38.260Z,27.01
2023-06-16T01:25:48.303Z,27.01
2023-06-16T01:25:58.312Z,27.01
2023-06-16T01:26:08.445Z,27.00
2023-06-16T01:26:18.447Z,27.00
2023-06-16T01:26:28.700Z,27.01
2023-06-16T01:26:38.714Z,27.01
2023-06-16T01:26:48.710Z,27.01
2023-06-16T01:26:58.708Z,27.00
2023-06-16T01:27:08.713Z,27.00
2023-06-16T01:27:18.713Z,27.01
2023-06-16T01:27:28.836Z,27.01
2023-06-16T01:27:38.838Z,27.00
2023-06-16T01:27:49.086Z,27.00
2023-06-16T01:27:58.992Z,27.00
2023-06-16T01:28:09.132Z,27.01
2023-06-16T01:28:19.127Z,27.00
2023-06-16T01:28:29.270Z,27.00
2023-06-16T01:28:39.482Z,27.01
2023-06-16T01:28:49.602Z,27.01
2023-06-16T01:28:59.604Z,27.00
2023-06-16T01:29:09.888Z,27.00
2023-06-16T01:29:19.870Z,27.00
2023-06-16T01:29:29.992Z,27.01
2023-06-16T01:29:40.250Z,27.00
2023-06-16T01:29:50.374Z,27.00
2023-06-16T01:30:00.379Z,27.00
2023-06-16T01:30:11.478Z,27.00
2023-06-16T01:30:20.890Z,26.99
2023-06-16T01:30:30.809Z,27.00
2023-06-16T01:30:41.090Z,27.00
2023-06-16T01:30:51.102Z,27.00
2023-06-16T01:31:01.123Z,27.00
2023-06-16T01:31:21.136Z,27.00
2023-06-16T01:31:31.254Z,27.00
2023-06-16T01:31:41.285Z,27.00
2023-06-16T01:31:51.301Z,26.99
2023-06-16T01:32:01.297Z,27.00
2023-06-16T01:32:11.486Z,27.00
2023-06-16T01:32:21.619Z,26.99
2023-06-16T01:32:31.641Z,27.00
2023-06-16T01:32:41.669Z,27.00
2023-06-16T01:32:52.053Z,26.99
2023-06-16T01:33:02.073Z,26.99
2023-06-16T01:33:12.122Z,27.00
2023-06-16T01:33:22.454Z,26.99
2023-06-16T01:33:32.449Z,26.99
2023-06-16T01:33:42.444Z,26.99
2023-06-16T01:33:52.443Z,27.00
2023-06-16T01:34:02.471Z,27.00
2023-06-16T01:34:12.465Z,26.99
2023-06-16T01:34:22.466Z,26.99
2023-06-16T01:34:32.591Z,26.99
2023-06-16T01:34:42.586Z,26.99
2023-06-16T01:34:52.711Z,26.99
2023-06-16T01:35:02.859Z,26.99
2023-06-16T01:35:12.879Z,26.99
2023-06-16T01:35:22.903Z,26.99
2023-06-16T01:35:32.899Z,26.99
2023-06-16T01:35:42.923Z,26.99
2023-06-16T01:35:53.042Z,27.00
2023-06-16T01:36:03.049Z,27.00
2023-06-16T01:36:13.055Z,26.99
2023-06-16T01:36:23.055Z,26.99
2023-06-16T01:36:33.239Z,26.99
2023-06-16T01:36:43.297Z,27.00
2023-06-16T01:36:53.282Z,26.99
2023-06-16T01:37:03.304Z,26.99
2023-06-16T01:37:13.313Z,26.99
2023-06-16T01:37:23.318Z,26.99
2023-06-16T01:37:33.324Z,26.99
2023-06-16T01:37:43.314Z,26.99
2023-06-16T01:37:53.465Z,26.99
2023-06-16T01:38:03.449Z,26.99
2023-06-16T01:38:13.447Z,26.99
2023-06-16T01:38:23.719Z,26.99
2023-06-16T01:38:33.714Z,26.99
2023-06-16T01:38:43.711Z,26.99
2023-06-16T01:38:54.084Z,27.00
2023-06-16T01:39:04.085Z,26.98
2023-06-16T01:39:14.208Z,26.98
2023-06-16T01:39:24.467Z,26.99
2023-06-16T01:39:34.606Z,27.00
2023-06-16T01:39:44.595Z,26.99
2023-06-16T01:39:54.852Z,26.99
2023-06-16T01:40:04.971Z,26.99
2023-06-16T01:40:15.062Z,26.99
2023-06-16T01:40:25.245Z,26.99
2023-06-16T01:40:35.246Z,26.99
2023-06-16T01:40:45.242Z,26.99
2023-06-16T01:40:55.240Z,26.99
2023-06-16T01:41:05.381Z,26.99
2023-06-16T01:41:15.374Z,26.99
2023-06-16T01:41:25.499Z,26.99
2023-06-16T01:41:35.510Z,26.98
2023-06-16T01:41:45.510Z,26.98
2023-06-16T01:41:55.518Z,26.99
2023-06-16T01:42:05.675Z,26.99
2023-06-16T01:42:15.683Z,26.99
2023-06-16T01:42:25.669Z,26.99
2023-06-16T01:42:35.672Z,26.99
2023-06-16T01:42:45.678Z,26.99
2023-06-16T01:42:55.679Z,26.98
2023-06-16T01:43:05.697Z,26.99
2023-06-16T01:43:15.699Z,26.99
2023-06-16T01:43:25.712Z,26.99
2023-06-16T01:43:35.711Z,26.98
2023-06-16T01:43:46.103Z,26.99
2023-06-16T01:43:56.095Z,26.99
2023-06-16T01:44:06.216Z,26.99
2023-06-16T01:44:16.474Z,26.98
2023-06-16T01:44:26.615Z,26.99
2023-06-16T01:44:36.616Z,26.98
2023-06-16T01:44:46.874Z,26.99
2023-06-16T01:44:56.867Z,26.98
2023-06-16T01:45:06.868Z,26.98
2023-06-16T01:45:16.875Z,26.98
2023-06-16T01:45:26.898Z,26.98
2023-06-16T01:45:36.898Z,26.99
2023-06-16T01:45:47.041Z,26.98
2023-06-16T01:45:57.062Z,26.99
2023-06-16T01:46:07.095Z,26.98
2023-06-16T01:46:17.269Z,26.98
2023-06-16T01:46:27.544Z,26.98
2023-06-16T01:46:37.509Z,26.99
2023-06-16T01:46:47.740Z,26.97
2023-06-16T01:46:57.923Z,26.99
2023-06-16T01:47:08.044Z,26.98
2023-06-16T01:47:18.143Z,26.98
2023-06-16T01:47:28.507Z,26.97
2023-06-16T01:47:38.522Z,26.98
2023-06-16T01:47:48.595Z,26.97
2023-06-16T01:47:58.620Z,26.98
2023-06-16T01:48:08.726Z,26.98
2023-06-16T01:48:18.864Z,26.98
2023-06-16T01:48:28.767Z,26.97
2023-06-16T01:48:38.772Z,26.97
2023-06-16T01:48:48.948Z,26.98
2023-06-16T01:48:58.934Z,26.98
2023-06-16T01:49:09.185Z,26.97
2023-06-16T01:49:19.193Z,26.97
2023-06-16T01:49:29.211Z,26.98
2023-06-16T01:49:39.216Z,26.97
2023-06-16T01:49:49.227Z,26.97
2023-06-16T01:49:59.240Z,26.98
2023-06-16T01:50:09.385Z,26.98
2023-06-16T01:50:19.621Z,26.98
2023-06-16T01:50:29.440Z,26.98
2023-06-16T01:50:39.438Z,26.98
2023-06-16T01:50:49.755Z,26.97
2023-06-16T01:50:59.793Z,26.97
2023-06-16T01:51:09.786Z,26.98
2023-06-16T01:51:20.045Z,26.98
2023-06-16T01:51:30.062Z,26.98
2023-06-16T01:51:40.062Z,26.97
2023-06-16T01:51:50.454Z,26.98
2023-06-16T01:52:00.454Z,26.97
2023-06-16T01:52:10.575Z,26.98
2023-06-16T01:52:20.858Z,26.97
2023-06-16T01:52:30.843Z,26.98
2023-06-16T01:52:40.852Z,26.97
2023-06-16T01:52:51.221Z,26.97
2023-06-16T01:53:01.221Z,26.98
2023-06-16T01:53:11.360Z,26.97
2023-06-16T01:53:21.620Z,26.97
2023-06-16T01:53:31.625Z,26.98
2023-06-16T01:53:41.631Z,26.97
2023-06-16T01:53:51.645Z,26.98
2023-06-16T01:54:01.650Z,26.97
2023-06-16T01:54:11.657Z,26.98
2023-06-16T01:54:21.651Z,26.97
2023-06-16T01:54:31.776Z,26.98
2023-06-16T01:54:41.777Z,26.98
2023-06-16T01:54:51.896Z,26.97
2023-06-16T01:55:02.060Z,26.97
2023-06-16T01:55:12.177Z,26.98
2023-06-16T01:55:22.175Z,26.97
2023-06-16T01:55:32.431Z,26.98
2023-06-16T01:55:42.441Z,26.97
2023-06-16T01:55:52.498Z,26.97
2023-06-16T01:56:02.490Z,26.97
2023-06-16T01:56:12.503Z,26.97
2023-06-16T01:56:22.514Z,26.96
2023-06-16T01:56:32.528Z,26.97
2023-06-16T01:56:42.534Z,26.97
2023-06-16T01:56:52.650Z,26.97
2023-06-16T01:57:02.662Z,26.96
2023-06-16T01:57:12.917Z,26.97
2023-06-16T01:57:22.910Z,26.97
2023-06-16T01:57:33.063Z,26.97
2023-06-16T01:57:43.303Z,26.96
2023-06-16T01:57:53.304Z,26.97
2023-06-16T01:58:03.314Z,26.97
2023-06-16T01:58:13.308Z,26.97
2023-06-16T01:58:23.320Z,26.97
2023-06-16T01:58:33.457Z,26.97
2023-06-16T01:58:43.453Z,26.97
2023-06-16T01:58:53.464Z,26.97
2023-06-16T01:59:03.481Z,26.97
2023-06-16T01:59:13.466Z,26.97
2023-06-16T01:59:23.754Z,26.97
2023-06-16T01:59:33.770Z,26.97
2023-06-16T01:59:43.781Z,26.97
2023-06-16T01:59:53.790Z,26.97
2023-06-16T02:00:03.809Z,26.97
2023-06-16T02:00:13.816Z,26.97
2023-06-16T02:00:23.817Z,26.97
2023-06-16T02:00:33.838Z,26.97
2023-06-16T02:00:43.838Z,26.97
2023-06-16T02:00:53.848Z,26.97
2023-06-16T02:01:03.863Z,26.97
2023-06-16T02:01:13.877Z,26.97
2023-06-16T02:01:23.880Z,26.97
2023-06-16T02:01:33.883Z,26.97
2023-06-16T02:01:43.897Z,26.97
2023-06-16T02:01:53.907Z,26.96
2023-06-16T02:02:03.929Z,26.97
2023-06-16T02:02:13.940Z,26.97
2023-06-16T02:02:23.975Z,26.97
2023-06-16T02:02:34.074Z,26.97
2023-06-16T02:02:44.173Z,26.96
2023-06-16T02:02:54.423Z,26.97
2023-06-16T02:03:04.331Z,26.97
2023-06-16T02:03:14.348Z,26.96
2023-06-16T02:03:24.600Z,26.97
2023-06-16T02:03:34.574Z,26.96
2023-06-16T02:03:44.646Z,26.96
2023-06-16T02:03:55.001Z,26.97
2023-06-16T02:04:04.840Z,26.96
2023-06-16T02:04:14.855Z,26.96
2023-06-16T02:04:24.862Z,26.96
2023-06-16T02:04:34.899Z,26.96
2023-06-16T02:04:44.887Z,26.95
2023-06-16T02:04:54.948Z,26.96
2023-06-16T02:05:04.952Z,26.96
2023-06-16T02:05:14.964Z,26.95
2023-06-16T02:05:24.962Z,26.96
2023-06-16T02:05:35.341Z,26.96
2023-06-16T02:05:45.339Z,26.96
2023-06-16T02:05:55.344Z,26.96
2023-06-16T02:06:05.352Z,26.96
2023-06-16T02:06:15.373Z,26.96
2023-06-16T02:06:25.378Z,26.96
2023-06-16T02:06:35.507Z,26.96
2023-06-16T02:06:45.557Z,26.96
2023-06-16T02:06:55.679Z,26.96
2023-06-16T02:07:05.678Z,26.96
2023-06-16T02:07:15.817Z,26.96
2023-06-16T02:07:25.843Z,26.96
2023-06-16T02:07:35.820Z,26.96
2023-06-16T02:07:45.816Z,26.96
2023-06-16T02:07:55.945Z,26.96
2023-06-16T02:08:05.942Z,26.96
2023-06-16T02:08:16.062Z,26.96
2023-06-16T02:08:26.083Z,26.96
2023-06-16T02:08:36.075Z,26.96
2023-06-16T02:08:46.070Z,26.96
2023-06-16T02:08:56.208Z,26.96
2023-06-16T02:09:06.213Z,26.95
2023-06-16T02:09:16.212Z,26.96
2023-06-16T02:09:26.214Z,26.96
2023-06-16T02:09:36.340Z,26.96
2023-06-16T02:09:46.353Z,26.96